sensor_id;sensor_type;location;lat;lon;timestamp;P1;durP1;ratioP1;P2;durP2;ratioP2
80273;SDS011;69576;51.902;-8.462;2024-01-30T00:01:58;5.72;;;1.80;;
80273;SDS011;69576;51.902;-8.462;2024-01-30T00:04:23;5.35;;;2.22;;
80273;SDS011;69576;51.902;-8.462;2024-01-30T00:06:51;5.55;;;2.08;;
80273;SDS011;69576;51.902;-8.462;2024-01-30T00:09:22;6.50;;;2.03;;
80273;SDS011;69576;51.902;-8.462;2024-01-30T00:11:50;5.45;;;2.17;;
80273;SDS011;69576;51.902;-8.462;2024-01-30T00:14:18;4.20;;;1.98;;
80273;SDS011;69576;51.902;-8.462;2024-01-30T00:16:47;5.32;;;2.10;;
80273;SDS011;69576;51.902;-8.462;2024-01-30T00:19:12;7.82;;;2.67;;
80273;SDS011;69576;51.902;-8.462;2024-01-30T00:21:43;3.20;;;1.63;;
80273;SDS011;69576;51.902;-8.462;2024-01-30T00:24:11;2.75;;;1.85;;
80273;SDS011;69576;51.902;-8.462;2024-01-30T00:26:39;6.13;;;2.33;;
80273;SDS011;69576;51.902;-8.462;2024-01-30T00:29:05;5.72;;;2.30;;
80273;SDS011;69576;51.902;-8.462;2024-01-30T00:31:31;7.43;;;1.90;;
80273;SDS011;69576;51.902;-8.462;2024-01-30T00:34:02;4.75;;;1.83;;
80273;SDS011;69576;51.902;-8.462;2024-01-30T00:36:29;3.72;;;1.98;;
80273;SDS011;69576;51.902;-8.462;2024-01-30T00:38:55;4.30;;;1.90;;
80273;SDS011;69576;51.902;-8.462;2024-01-30T00:41:21;5.72;;;2.10;;
80273;SDS011;69576;51.902;-8.462;2024-01-30T00:43:47;4.53;;;2.00;;
80273;SDS011;69576;51.902;-8.462;2024-01-30T00:46:15;6.40;;;1.90;;
80273;SDS011;69576;51.902;-8.462;2024-01-30T00:48:43;6.85;;;2.58;;
80273;SDS011;69576;51.902;-8.462;2024-01-30T00:51:09;5.60;;;2.75;;
80273;SDS011;69576;51.902;-8.462;2024-01-30T00:53:34;10.75;;;3.30;;
80273;SDS011;69576;51.902;-8.462;2024-01-30T00:56:00;5.43;;;2.97;;
80273;SDS011;69576;51.902;-8.462;2024-01-30T00:58:28;5.25;;;2.97;;
80273;SDS011;69576;51.902;-8.462;2024-01-30T01:00:56;8.35;;;3.70;;
80273;SDS011;69576;51.902;-8.462;2024-01-30T01:03:22;6.63;;;3.10;;
80273;SDS011;69576;51.902;-8.462;2024-01-30T01:05:50;7.07;;;3.10;;
80273;SDS011;69576;51.902;-8.462;2024-01-30T01:08:18;8.10;;;2.70;;
80273;SDS011;69576;51.902;-8.462;2024-01-30T01:10:47;6.13;;;2.78;;
80273;SDS011;69576;51.902;-8.462;2024-01-30T01:13:18;8.32;;;3.90;;
80273;SDS011;69576;51.902;-8.462;2024-01-30T01:15:43;9.35;;;3.03;;
80273;SDS011;69576;51.902;-8.462;2024-01-30T01:18:14;5.15;;;2.88;;
80273;SDS011;69576;51.902;-8.462;2024-01-30T01:20:42;5.38;;;2.97;;
80273;SDS011;69576;51.902;-8.462;2024-01-30T01:23:07;7.32;;;2.88;;
80273;SDS011;69576;51.902;-8.462;2024-01-30T01:25:33;7.72;;;2.65;;
80273;SDS011;69576;51.902;-8.462;2024-01-30T01:28:01;4.82;;;2.35;;
80273;SDS011;69576;51.902;-8.462;2024-01-30T01:30:27;6.47;;;3.42;;
80273;SDS011;69576;51.902;-8.462;2024-01-30T01:32:54;6.40;;;2.33;;
80273;SDS011;69576;51.902;-8.462;2024-01-30T01:35:22;7.72;;;3.53;;
80273;SDS011;69576;51.902;-8.462;2024-01-30T01:37:50;5.35;;;2.25;;
80273;SDS011;69576;51.902;-8.462;2024-01-30T01:40:24;7.35;;;2.63;;
80273;SDS011;69576;51.902;-8.462;2024-01-30T01:42:55;4.90;;;2.50;;
80273;SDS011;69576;51.902;-8.462;2024-01-30T01:45:21;5.32;;;2.45;;
80273;SDS011;69576;51.902;-8.462;2024-01-30T01:47:49;6.18;;;2.15;;
80273;SDS011;69576;51.902;-8.462;2024-01-30T01:50:16;4.18;;;1.85;;
80273;SDS011;69576;51.902;-8.462;2024-01-30T01:52:43;6.38;;;2.58;;
80273;SDS011;69576;51.902;-8.462;2024-01-30T01:55:13;2.95;;;1.75;;
80273;SDS011;69576;51.902;-8.462;2024-01-30T01:57:41;8.30;;;2.10;;
80273;SDS011;69576;51.902;-8.462;2024-01-30T02:00:09;6.32;;;2.40;;
80273;SDS011;69576;51.902;-8.462;2024-01-30T02:02:36;5.18;;;2.03;;
80273;SDS011;69576;51.902;-8.462;2024-01-30T02:05:04;5.07;;;2.70;;
80273;SDS011;69576;51.902;-8.462;2024-01-30T02:07:30;5.22;;;2.58;;
80273;SDS011;69576;51.902;-8.462;2024-01-30T02:09:56;2.85;;;1.65;;
80273;SDS011;69576;51.902;-8.462;2024-01-30T02:12:21;12.02;;;2.30;;
80273;SDS011;69576;51.902;-8.462;2024-01-30T02:14:48;5.75;;;2.13;;
80273;SDS011;69576;51.902;-8.462;2024-01-30T02:17:15;3.85;;;1.63;;
80273;SDS011;69576;51.902;-8.462;2024-01-30T02:19:46;3.22;;;1.77;;
80273;SDS011;69576;51.902;-8.462;2024-01-30T02:22:14;3.17;;;1.90;;
80273;SDS011;69576;51.902;-8.462;2024-01-30T02:24:43;4.60;;;2.15;;
80273;SDS011;69576;51.902;-8.462;2024-01-30T02:27:11;4.63;;;1.83;;
80273;SDS011;69576;51.902;-8.462;2024-01-30T02:29:39;3.15;;;1.52;;
80273;SDS011;69576;51.902;-8.462;2024-01-30T02:32:05;7.95;;;2.08;;
80273;SDS011;69576;51.902;-8.462;2024-01-30T02:34:31;4.65;;;2.35;;
80273;SDS011;69576;51.902;-8.462;2024-01-30T02:36:57;4.93;;;2.35;;
80273;SDS011;69576;51.902;-8.462;2024-01-30T02:39:23;5.20;;;1.80;;
80273;SDS011;69576;51.902;-8.462;2024-01-30T02:41:48;4.57;;;2.10;;
80273;SDS011;69576;51.902;-8.462;2024-01-30T02:44:16;6.65;;;2.35;;
80273;SDS011;69576;51.902;-8.462;2024-01-30T02:46:42;6.10;;;2.55;;
80273;SDS011;69576;51.902;-8.462;2024-01-30T02:49:10;3.28;;;1.67;;
80273;SDS011;69576;51.902;-8.462;2024-01-30T02:51:36;5.60;;;2.10;;
80273;SDS011;69576;51.902;-8.462;2024-01-30T02:54:06;3.53;;;1.77;;
80273;SDS011;69576;51.902;-8.462;2024-01-30T02:56:31;3.13;;;1.80;;
80273;SDS011;69576;51.902;-8.462;2024-01-30T02:58:59;5.07;;;1.90;;
80273;SDS011;69576;51.902;-8.462;2024-01-30T03:01:27;3.17;;;1.90;;
80273;SDS011;69576;51.902;-8.462;2024-01-30T03:03:59;6.28;;;1.95;;
80273;SDS011;69576;51.902;-8.462;2024-01-30T03:06:24;5.70;;;1.90;;
80273;SDS011;69576;51.902;-8.462;2024-01-30T03:08:50;5.45;;;2.03;;
80273;SDS011;69576;51.902;-8.462;2024-01-30T03:11:20;4.03;;;1.73;;
80273;SDS011;69576;51.902;-8.462;2024-01-30T03:13:46;3.97;;;1.73;;
80273;SDS011;69576;51.902;-8.462;2024-01-30T03:16:14;3.85;;;1.95;;
80273;SDS011;69576;51.902;-8.462;2024-01-30T03:18:42;4.25;;;2.20;;
80273;SDS011;69576;51.902;-8.462;2024-01-30T03:21:10;5.03;;;1.73;;
80273;SDS011;69576;51.902;-8.462;2024-01-30T03:23:36;5.50;;;1.77;;
80273;SDS011;69576;51.902;-8.462;2024-01-30T03:26:04;9.15;;;2.75;;
80273;SDS011;69576;51.902;-8.462;2024-01-30T03:28:32;5.30;;;1.88;;
80273;SDS011;69576;51.902;-8.462;2024-01-30T03:30:59;2.95;;;1.73;;
80273;SDS011;69576;51.902;-8.462;2024-01-30T03:33:30;7.05;;;2.05;;
80273;SDS011;69576;51.902;-8.462;2024-01-30T03:35:56;4.72;;;2.10;;
80273;SDS011;69576;51.902;-8.462;2024-01-30T03:38:21;4.50;;;2.08;;
80273;SDS011;69576;51.902;-8.462;2024-01-30T03:40:50;4.28;;;2.33;;
80273;SDS011;69576;51.902;-8.462;2024-01-30T03:43:18;4.05;;;2.05;;
80273;SDS011;69576;51.902;-8.462;2024-01-30T03:45:44;5.57;;;1.75;;
80273;SDS011;69576;51.902;-8.462;2024-01-30T03:48:10;4.20;;;1.55;;
80273;SDS011;69576;51.902;-8.462;2024-01-30T03:50:38;5.78;;;2.15;;
80273;SDS011;69576;51.902;-8.462;2024-01-30T03:53:06;5.07;;;1.70;;
80273;SDS011;69576;51.902;-8.462;2024-01-30T03:55:34;6.05;;;2.03;;
80273;SDS011;69576;51.902;-8.462;2024-01-30T03:58:05;6.93;;;2.30;;
80273;SDS011;69576;51.902;-8.462;2024-01-30T04:00:33;5.85;;;2.08;;
80273;SDS011;69576;51.902;-8.462;2024-01-30T04:03:01;5.15;;;2.35;;
80273;SDS011;69576;51.902;-8.462;2024-01-30T04:05:29;5.07;;;2.10;;
80273;SDS011;69576;51.902;-8.462;2024-01-30T04:07:55;5.22;;;1.83;;
80273;SDS011;69576;51.902;-8.462;2024-01-30T04:10:24;3.60;;;2.13;;
80273;SDS011;69576;51.902;-8.462;2024-01-30T04:12:52;7.15;;;2.20;;
80273;SDS011;69576;51.902;-8.462;2024-01-30T04:15:19;4.82;;;2.30;;
80273;SDS011;69576;51.902;-8.462;2024-01-30T04:17:45;3.85;;;1.60;;
80273;SDS011;69576;51.902;-8.462;2024-01-30T04:20:14;5.45;;;2.45;;
80273;SDS011;69576;51.902;-8.462;2024-01-30T04:22:44;6.22;;;1.60;;
80273;SDS011;69576;51.902;-8.462;2024-01-30T04:25:15;3.15;;;1.80;;
80273;SDS011;69576;51.902;-8.462;2024-01-30T04:27:43;6.75;;;2.30;;
80273;SDS011;69576;51.902;-8.462;2024-01-30T04:30:09;4.30;;;1.75;;
80273;SDS011;69576;51.902;-8.462;2024-01-30T04:32:35;5.85;;;2.08;;
80273;SDS011;69576;51.902;-8.462;2024-01-30T04:35:04;5.30;;;2.00;;
80273;SDS011;69576;51.902;-8.462;2024-01-30T04:37:32;6.50;;;2.08;;
80273;SDS011;69576;51.902;-8.462;2024-01-30T04:39:58;3.30;;;1.80;;
80273;SDS011;69576;51.902;-8.462;2024-01-30T04:42:23;6.68;;;2.28;;
80273;SDS011;69576;51.902;-8.462;2024-01-30T04:44:49;5.32;;;2.50;;
80273;SDS011;69576;51.902;-8.462;2024-01-30T04:47:18;3.33;;;1.83;;
80273;SDS011;69576;51.902;-8.462;2024-01-30T04:49:43;4.90;;;2.58;;
80273;SDS011;69576;51.902;-8.462;2024-01-30T04:52:09;6.80;;;1.95;;
80273;SDS011;69576;51.902;-8.462;2024-01-30T04:54:35;4.95;;;1.83;;
80273;SDS011;69576;51.902;-8.462;2024-01-30T04:57:05;3.17;;;1.90;;
80273;SDS011;69576;51.902;-8.462;2024-01-30T04:59:39;5.57;;;2.20;;
80273;SDS011;69576;51.902;-8.462;2024-01-30T05:02:05;5.18;;;2.53;;
80273;SDS011;69576;51.902;-8.462;2024-01-30T05:04:33;8.10;;;3.05;;
80273;SDS011;69576;51.902;-8.462;2024-01-30T05:06:59;5.40;;;2.30;;
80273;SDS011;69576;51.902;-8.462;2024-01-30T05:09:25;3.47;;;2.22;;
80273;SDS011;69576;51.902;-8.462;2024-01-30T05:11:53;6.70;;;2.78;;
80273;SDS011;69576;51.902;-8.462;2024-01-30T05:14:19;5.70;;;2.55;;
80273;SDS011;69576;51.902;-8.462;2024-01-30T05:16:44;4.70;;;2.13;;
80273;SDS011;69576;51.902;-8.462;2024-01-30T05:19:12;4.03;;;1.92;;
80273;SDS011;69576;51.902;-8.462;2024-01-30T05:21:41;3.25;;;1.63;;
80273;SDS011;69576;51.902;-8.462;2024-01-30T05:24:11;8.73;;;2.55;;
80273;SDS011;69576;51.902;-8.462;2024-01-30T05:26:40;6.50;;;2.35;;
80273;SDS011;69576;51.902;-8.462;2024-01-30T05:29:09;4.95;;;1.92;;
80273;SDS011;69576;51.902;-8.462;2024-01-30T05:31:37;7.43;;;2.10;;
80273;SDS011;69576;51.902;-8.462;2024-01-30T05:34:02;5.85;;;2.33;;
80273;SDS011;69576;51.902;-8.462;2024-01-30T05:36:31;4.05;;;2.00;;
80273;SDS011;69576;51.902;-8.462;2024-01-30T05:38:59;5.10;;;2.35;;
80273;SDS011;69576;51.902;-8.462;2024-01-30T05:41:25;6.72;;;2.30;;
80273;SDS011;69576;51.902;-8.462;2024-01-30T05:43:54;5.85;;;2.05;;
80273;SDS011;69576;51.902;-8.462;2024-01-30T05:46:23;4.45;;;2.05;;
80273;SDS011;69576;51.902;-8.462;2024-01-30T05:48:48;4.80;;;2.00;;
80273;SDS011;69576;51.902;-8.462;2024-01-30T05:51:14;5.20;;;1.80;;
80273;SDS011;69576;51.902;-8.462;2024-01-30T05:53:40;5.22;;;2.60;;
80273;SDS011;69576;51.902;-8.462;2024-01-30T05:56:06;4.28;;;1.98;;
80273;SDS011;69576;51.902;-8.462;2024-01-30T05:58:34;5.68;;;2.63;;
80273;SDS011;69576;51.902;-8.462;2024-01-30T06:01:02;6.63;;;2.17;;
80273;SDS011;69576;51.902;-8.462;2024-01-30T06:03:28;3.88;;;1.90;;
80273;SDS011;69576;51.902;-8.462;2024-01-30T06:05:56;3.75;;;1.95;;
80273;SDS011;69576;51.902;-8.462;2024-01-30T06:08:24;6.50;;;2.13;;
80273;SDS011;69576;51.902;-8.462;2024-01-30T06:10:52;7.47;;;2.17;;
80273;SDS011;69576;51.902;-8.462;2024-01-30T06:13:18;4.82;;;2.40;;
80273;SDS011;69576;51.902;-8.462;2024-01-30T06:15:48;6.00;;;2.50;;
80273;SDS011;69576;51.902;-8.462;2024-01-30T06:18:16;7.38;;;3.03;;
80273;SDS011;69576;51.902;-8.462;2024-01-30T06:20:42;8.98;;;2.72;;
80273;SDS011;69576;51.902;-8.462;2024-01-30T06:23:08;5.63;;;2.20;;
80273;SDS011;69576;51.902;-8.462;2024-01-30T06:25:36;4.68;;;2.30;;
80273;SDS011;69576;51.902;-8.462;2024-01-30T06:28:02;4.00;;;2.17;;
80273;SDS011;69576;51.902;-8.462;2024-01-30T06:30:28;2.63;;;1.70;;
80273;SDS011;69576;51.902;-8.462;2024-01-30T06:32:54;5.95;;;2.08;;
80273;SDS011;69576;51.902;-8.462;2024-01-30T06:35:22;7.63;;;2.30;;
80273;SDS011;69576;51.902;-8.462;2024-01-30T06:37:50;5.80;;;2.10;;
80273;SDS011;69576;51.902;-8.462;2024-01-30T06:40:19;7.97;;;2.38;;
80273;SDS011;69576;51.902;-8.462;2024-01-30T06:42:47;8.93;;;2.75;;
80273;SDS011;69576;51.902;-8.462;2024-01-30T06:45:17;5.88;;;1.90;;
80273;SDS011;69576;51.902;-8.462;2024-01-30T06:47:45;11.23;;;3.20;;
80273;SDS011;69576;51.902;-8.462;2024-01-30T06:50:11;5.50;;;3.03;;
80273;SDS011;69576;51.902;-8.462;2024-01-30T06:52:36;10.27;;;3.13;;
80273;SDS011;69576;51.902;-8.462;2024-01-30T06:55:04;9.27;;;3.17;;
80273;SDS011;69576;51.902;-8.462;2024-01-30T06:57:31;10.70;;;3.22;;
80273;SDS011;69576;51.902;-8.462;2024-01-30T06:59:56;5.93;;;2.92;;
80273;SDS011;69576;51.902;-8.462;2024-01-30T07:02:22;8.90;;;3.40;;
80273;SDS011;69576;51.902;-8.462;2024-01-30T07:04:48;5.13;;;2.95;;
80273;SDS011;69576;51.902;-8.462;2024-01-30T07:07:14;7.00;;;2.97;;
80273;SDS011;69576;51.902;-8.462;2024-01-30T07:09:40;5.97;;;2.78;;
80273;SDS011;69576;51.902;-8.462;2024-01-30T07:12:06;7.65;;;2.72;;
80273;SDS011;69576;51.902;-8.462;2024-01-30T07:14:33;6.40;;;3.30;;
80273;SDS011;69576;51.902;-8.462;2024-01-30T07:17:03;7.25;;;3.25;;
80273;SDS011;69576;51.902;-8.462;2024-01-30T07:19:29;5.78;;;3.20;;
80273;SDS011;69576;51.902;-8.462;2024-01-30T07:21:57;5.53;;;2.65;;
80273;SDS011;69576;51.902;-8.462;2024-01-30T07:24:23;5.88;;;2.83;;
80273;SDS011;69576;51.902;-8.462;2024-01-30T07:26:49;4.53;;;2.42;;
80273;SDS011;69576;51.902;-8.462;2024-01-30T07:29:17;6.53;;;2.58;;
80273;SDS011;69576;51.902;-8.462;2024-01-30T07:31:45;5.85;;;2.70;;
80273;SDS011;69576;51.902;-8.462;2024-01-30T07:34:11;5.90;;;3.00;;
80273;SDS011;69576;51.902;-8.462;2024-01-30T07:36:42;9.50;;;2.70;;
80273;SDS011;69576;51.902;-8.462;2024-01-30T07:39:07;6.13;;;2.85;;
80273;SDS011;69576;51.902;-8.462;2024-01-30T07:41:35;6.50;;;2.88;;
80273;SDS011;69576;51.902;-8.462;2024-01-30T07:44:02;9.15;;;3.80;;
80273;SDS011;69576;51.902;-8.462;2024-01-30T07:46:31;6.35;;;3.20;;
80273;SDS011;69576;51.902;-8.462;2024-01-30T07:48:59;5.85;;;3.20;;
80273;SDS011;69576;51.902;-8.462;2024-01-30T07:51:25;7.18;;;3.67;;
80273;SDS011;69576;51.902;-8.462;2024-01-30T07:53:54;5.93;;;2.90;;
80273;SDS011;69576;51.902;-8.462;2024-01-30T07:56:22;5.05;;;2.88;;
80273;SDS011;69576;51.902;-8.462;2024-01-30T07:58:53;4.15;;;2.47;;
80273;SDS011;69576;51.902;-8.462;2024-01-30T08:01:21;7.25;;;3.28;;
80273;SDS011;69576;51.902;-8.462;2024-01-30T08:03:47;5.43;;;3.25;;
80273;SDS011;69576;51.902;-8.462;2024-01-30T08:06:13;5.40;;;2.85;;
80273;SDS011;69576;51.902;-8.462;2024-01-30T08:08:39;7.35;;;2.80;;
80273;SDS011;69576;51.902;-8.462;2024-01-30T08:11:12;4.80;;;2.00;;
80273;SDS011;69576;51.902;-8.462;2024-01-30T08:13:37;5.13;;;2.67;;
80273;SDS011;69576;51.902;-8.462;2024-01-30T08:16:06;8.05;;;2.60;;
80273;SDS011;69576;51.902;-8.462;2024-01-30T08:18:36;5.10;;;2.63;;
80273;SDS011;69576;51.902;-8.462;2024-01-30T08:21:05;4.03;;;2.22;;
80273;SDS011;69576;51.902;-8.462;2024-01-30T08:23:33;5.22;;;2.28;;
80273;SDS011;69576;51.902;-8.462;2024-01-30T08:25:59;5.00;;;2.60;;
80273;SDS011;69576;51.902;-8.462;2024-01-30T08:28:24;7.82;;;2.50;;
80273;SDS011;69576;51.902;-8.462;2024-01-30T08:30:51;5.65;;;2.58;;
80273;SDS011;69576;51.902;-8.462;2024-01-30T08:33:21;7.22;;;2.35;;
80273;SDS011;69576;51.902;-8.462;2024-01-30T08:35:47;7.05;;;2.42;;
80273;SDS011;69576;51.902;-8.462;2024-01-30T08:38:16;6.53;;;2.25;;
80273;SDS011;69576;51.902;-8.462;2024-01-30T08:40:44;6.43;;;2.50;;
80273;SDS011;69576;51.902;-8.462;2024-01-30T08:43:09;7.65;;;2.80;;
80273;SDS011;69576;51.902;-8.462;2024-01-30T08:45:38;10.05;;;2.72;;
80273;SDS011;69576;51.902;-8.462;2024-01-30T08:48:05;10.32;;;3.05;;
80273;SDS011;69576;51.902;-8.462;2024-01-30T08:50:34;9.15;;;3.45;;
80273;SDS011;69576;51.902;-8.462;2024-01-30T08:53:02;5.05;;;2.55;;
80273;SDS011;69576;51.902;-8.462;2024-01-30T08:55:30;6.18;;;2.55;;
80273;SDS011;69576;51.902;-8.462;2024-01-30T08:57:58;6.82;;;2.88;;
80273;SDS011;69576;51.902;-8.462;2024-01-30T09:00:24;5.80;;;3.08;;
80273;SDS011;69576;51.902;-8.462;2024-01-30T09:02:52;5.30;;;2.88;;
80273;SDS011;69576;51.902;-8.462;2024-01-30T09:05:18;6.07;;;2.60;;
80273;SDS011;69576;51.902;-8.462;2024-01-30T09:07:46;5.30;;;2.80;;
80273;SDS011;69576;51.902;-8.462;2024-01-30T09:10:12;10.55;;;3.60;;
80273;SDS011;69576;51.902;-8.462;2024-01-30T09:12:40;9.13;;;3.22;;
80273;SDS011;69576;51.902;-8.462;2024-01-30T09:15:08;7.30;;;2.88;;
80273;SDS011;69576;51.902;-8.462;2024-01-30T09:17:39;5.43;;;3.03;;
80273;SDS011;69576;51.902;-8.462;2024-01-30T09:20:05;7.35;;;2.92;;
80273;SDS011;69576;51.902;-8.462;2024-01-30T09:22:31;7.95;;;3.00;;
80273;SDS011;69576;51.902;-8.462;2024-01-30T09:24:57;8.25;;;4.22;;
80273;SDS011;69576;51.902;-8.462;2024-01-30T09:27:23;11.63;;;2.67;;
80273;SDS011;69576;51.902;-8.462;2024-01-30T09:29:49;4.93;;;2.30;;
80273;SDS011;69576;51.902;-8.462;2024-01-30T09:32:15;6.03;;;2.63;;
80273;SDS011;69576;51.902;-8.462;2024-01-30T09:34:44;6.82;;;2.83;;
80273;SDS011;69576;51.902;-8.462;2024-01-30T09:37:14;6.43;;;2.40;;
80273;SDS011;69576;51.902;-8.462;2024-01-30T09:39:43;8.13;;;2.72;;
80273;SDS011;69576;51.902;-8.462;2024-01-30T09:44:45;6.35;;;2.67;;
80273;SDS011;69576;51.902;-8.462;2024-01-30T09:47:18;7.43;;;2.58;;
80273;SDS011;69576;51.902;-8.462;2024-01-30T09:49:46;6.63;;;2.75;;
80273;SDS011;69576;51.902;-8.462;2024-01-30T09:52:13;6.18;;;2.78;;
80273;SDS011;69576;51.902;-8.462;2024-01-30T09:54:42;8.95;;;3.90;;
80273;SDS011;69576;51.902;-8.462;2024-01-30T09:57:10;8.80;;;3.20;;
80273;SDS011;69576;51.902;-8.462;2024-01-30T09:59:41;9.13;;;3.72;;
80273;SDS011;69576;51.902;-8.462;2024-01-30T10:02:08;8.55;;;3.92;;
80273;SDS011;69576;51.902;-8.462;2024-01-30T10:04:37;10.07;;;3.65;;
80273;SDS011;69576;51.902;-8.462;2024-01-30T10:07:02;9.50;;;2.83;;
80273;SDS011;69576;51.902;-8.462;2024-01-30T10:09:31;8.77;;;3.67;;
80273;SDS011;69576;51.902;-8.462;2024-01-30T10:11:58;9.07;;;3.58;;
80273;SDS011;69576;51.902;-8.462;2024-01-30T10:14:26;8.48;;;4.35;;
80273;SDS011;69576;51.902;-8.462;2024-01-30T10:16:52;7.97;;;3.22;;
80273;SDS011;69576;51.902;-8.462;2024-01-30T10:19:24;5.90;;;2.83;;
80273;SDS011;69576;51.902;-8.462;2024-01-30T10:21:50;8.32;;;3.58;;
80273;SDS011;69576;51.902;-8.462;2024-01-30T10:24:16;6.60;;;2.92;;
80273;SDS011;69576;51.902;-8.462;2024-01-30T10:26:48;5.60;;;3.00;;
80273;SDS011;69576;51.902;-8.462;2024-01-30T10:29:14;5.85;;;3.47;;
80273;SDS011;69576;51.902;-8.462;2024-01-30T10:31:40;8.68;;;3.35;;
80273;SDS011;69576;51.902;-8.462;2024-01-30T10:34:08;9.85;;;3.53;;
80273;SDS011;69576;51.902;-8.462;2024-01-30T10:36:37;8.60;;;2.97;;
80273;SDS011;69576;51.902;-8.462;2024-01-30T10:39:08;5.00;;;2.88;;
80273;SDS011;69576;51.902;-8.462;2024-01-30T10:41:37;5.47;;;2.80;;
80273;SDS011;69576;51.902;-8.462;2024-01-30T10:44:09;5.03;;;3.22;;
80273;SDS011;69576;51.902;-8.462;2024-01-30T10:46:41;8.20;;;3.10;;
80273;SDS011;69576;51.902;-8.462;2024-01-30T10:49:12;8.48;;;3.28;;
80273;SDS011;69576;51.902;-8.462;2024-01-30T10:51:39;7.53;;;2.88;;
80273;SDS011;69576;51.902;-8.462;2024-01-30T10:54:07;5.68;;;2.92;;
80273;SDS011;69576;51.902;-8.462;2024-01-30T10:56:36;8.88;;;3.35;;
80273;SDS011;69576;51.902;-8.462;2024-01-30T10:59:06;7.03;;;2.75;;
80273;SDS011;69576;51.902;-8.462;2024-01-30T11:01:34;7.82;;;3.30;;
80273;SDS011;69576;51.902;-8.462;2024-01-30T11:06:26;6.47;;;3.05;;
80273;SDS011;69576;51.902;-8.462;2024-01-30T11:09:02;6.22;;;3.75;;
80273;SDS011;69576;51.902;-8.462;2024-01-30T11:11:29;6.50;;;3.60;;
80273;SDS011;69576;51.902;-8.462;2024-01-30T11:13:55;7.35;;;3.30;;
80273;SDS011;69576;51.902;-8.462;2024-01-30T11:16:30;5.40;;;2.38;;
80273;SDS011;69576;51.902;-8.462;2024-01-30T11:18:59;7.35;;;3.40;;
80273;SDS011;69576;51.902;-8.462;2024-01-30T11:21:27;8.65;;;3.60;;
80273;SDS011;69576;51.902;-8.462;2024-01-30T11:23:56;7.03;;;2.92;;
80273;SDS011;69576;51.902;-8.462;2024-01-30T11:26:31;8.73;;;2.58;;
80273;SDS011;69576;51.902;-8.462;2024-01-30T11:29:02;4.30;;;2.30;;
80273;SDS011;69576;51.902;-8.462;2024-01-30T11:31:31;8.32;;;3.38;;
80273;SDS011;69576;51.902;-8.462;2024-01-30T11:33:57;8.20;;;2.65;;
80273;SDS011;69576;51.902;-8.462;2024-01-30T11:36:25;5.65;;;3.15;;
80273;SDS011;69576;51.902;-8.462;2024-01-30T11:38:54;7.15;;;2.80;;
80273;SDS011;69576;51.902;-8.462;2024-01-30T11:41:22;9.55;;;2.80;;
80273;SDS011;69576;51.902;-8.462;2024-01-30T11:43:53;5.60;;;2.67;;
80273;SDS011;69576;51.902;-8.462;2024-01-30T11:48:44;8.13;;;2.90;;
80273;SDS011;69576;51.902;-8.462;2024-01-30T11:51:13;5.72;;;2.75;;
80273;SDS011;69576;51.902;-8.462;2024-01-30T11:53:39;4.95;;;2.33;;
80273;SDS011;69576;51.902;-8.462;2024-01-30T11:56:06;6.18;;;2.22;;
80273;SDS011;69576;51.902;-8.462;2024-01-30T11:58:36;5.70;;;2.58;;
80273;SDS011;69576;51.902;-8.462;2024-01-30T12:01:07;6.32;;;2.35;;
80273;SDS011;69576;51.902;-8.462;2024-01-30T12:03:33;5.78;;;2.50;;
80273;SDS011;69576;51.902;-8.462;2024-01-30T12:05:59;9.60;;;3.30;;
80273;SDS011;69576;51.902;-8.462;2024-01-30T12:08:25;4.88;;;2.33;;
80273;SDS011;69576;51.902;-8.462;2024-01-30T12:10:58;6.85;;;2.60;;
80273;SDS011;69576;51.902;-8.462;2024-01-30T12:13:28;4.47;;;2.55;;
80273;SDS011;69576;51.902;-8.462;2024-01-30T12:15:57;5.00;;;2.47;;
80273;SDS011;69576;51.902;-8.462;2024-01-30T12:18:23;4.75;;;3.08;;
80273;SDS011;69576;51.902;-8.462;2024-01-30T12:21:01;4.25;;;2.20;;
80273;SDS011;69576;51.902;-8.462;2024-01-30T12:23:33;5.07;;;2.60;;
80273;SDS011;69576;51.902;-8.462;2024-01-30T12:26:00;5.82;;;2.58;;
80273;SDS011;69576;51.902;-8.462;2024-01-30T12:28:32;9.45;;;2.65;;
80273;SDS011;69576;51.902;-8.462;2024-01-30T12:31:03;5.68;;;2.95;;
80273;SDS011;69576;51.902;-8.462;2024-01-30T12:33:36;6.43;;;3.67;;
80273;SDS011;69576;51.902;-8.462;2024-01-30T12:36:02;6.38;;;2.80;;
80273;SDS011;69576;51.902;-8.462;2024-01-30T12:38:29;5.05;;;3.10;;
80273;SDS011;69576;51.902;-8.462;2024-01-30T12:40:55;7.30;;;3.00;;
80273;SDS011;69576;51.902;-8.462;2024-01-30T12:43:21;7.78;;;3.22;;
80273;SDS011;69576;51.902;-8.462;2024-01-30T12:45:48;7.72;;;3.25;;
80273;SDS011;69576;51.902;-8.462;2024-01-30T12:50:45;6.78;;;3.17;;
80273;SDS011;69576;51.902;-8.462;2024-01-30T12:53:14;7.63;;;3.40;;
80273;SDS011;69576;51.902;-8.462;2024-01-30T12:55:39;5.18;;;3.13;;
80273;SDS011;69576;51.902;-8.462;2024-01-30T12:58:08;6.97;;;2.78;;
80273;SDS011;69576;51.902;-8.462;2024-01-30T13:00:33;5.68;;;2.75;;
80273;SDS011;69576;51.902;-8.462;2024-01-30T13:03:02;5.22;;;2.50;;
80273;SDS011;69576;51.902;-8.462;2024-01-30T13:05:31;6.50;;;3.08;;
80273;SDS011;69576;51.902;-8.462;2024-01-30T13:08:02;9.48;;;3.13;;
80273;SDS011;69576;51.902;-8.462;2024-01-30T13:10:30;6.97;;;3.00;;
80273;SDS011;69576;51.902;-8.462;2024-01-30T13:12:58;7.13;;;3.33;;
80273;SDS011;69576;51.902;-8.462;2024-01-30T13:15:24;7.60;;;3.20;;
80273;SDS011;69576;51.902;-8.462;2024-01-30T13:17:52;5.95;;;2.75;;
80273;SDS011;69576;51.902;-8.462;2024-01-30T13:20:19;5.82;;;2.85;;
80273;SDS011;69576;51.902;-8.462;2024-01-30T13:22:48;4.55;;;2.40;;
80273;SDS011;69576;51.902;-8.462;2024-01-30T13:25:17;6.28;;;2.95;;
80273;SDS011;69576;51.902;-8.462;2024-01-30T13:27:42;10.98;;;2.67;;
80273;SDS011;69576;51.902;-8.462;2024-01-30T13:30:11;6.38;;;1.88;;
80273;SDS011;69576;51.902;-8.462;2024-01-30T13:32:39;4.07;;;1.55;;
80273;SDS011;69576;51.902;-8.462;2024-01-30T13:35:11;1.83;;;0.88;;
80273;SDS011;69576;51.902;-8.462;2024-01-30T13:37:40;4.88;;;1.42;;
80273;SDS011;69576;51.902;-8.462;2024-01-30T13:40:07;1.73;;;1.00;;
80273;SDS011;69576;51.902;-8.462;2024-01-30T13:42:35;0.77;;;0.55;;
80273;SDS011;69576;51.902;-8.462;2024-01-30T13:45:06;4.97;;;1.40;;
80273;SDS011;69576;51.902;-8.462;2024-01-30T13:47:34;4.15;;;1.20;;
80273;SDS011;69576;51.902;-8.462;2024-01-30T13:50:02;3.97;;;1.20;;
80273;SDS011;69576;51.902;-8.462;2024-01-30T13:52:29;2.88;;;1.15;;
80273;SDS011;69576;51.902;-8.462;2024-01-30T13:54:57;4.35;;;1.10;;
80273;SDS011;69576;51.902;-8.462;2024-01-30T13:57:23;4.30;;;1.30;;
80273;SDS011;69576;51.902;-8.462;2024-01-30T13:59:48;2.97;;;1.50;;
80273;SDS011;69576;51.902;-8.462;2024-01-30T14:02:14;2.38;;;1.23;;
80273;SDS011;69576;51.902;-8.462;2024-01-30T14:04:40;3.35;;;1.52;;
80273;SDS011;69576;51.902;-8.462;2024-01-30T14:07:08;3.33;;;1.45;;
80273;SDS011;69576;51.902;-8.462;2024-01-30T14:09:34;2.22;;;0.90;;
80273;SDS011;69576;51.902;-8.462;2024-01-30T14:12:03;7.13;;;1.38;;
80273;SDS011;69576;51.902;-8.462;2024-01-30T14:14:29;3.97;;;1.30;;
80273;SDS011;69576;51.902;-8.462;2024-01-30T14:16:57;4.13;;;1.15;;
80273;SDS011;69576;51.902;-8.462;2024-01-30T14:19:23;1.60;;;0.88;;
80273;SDS011;69576;51.902;-8.462;2024-01-30T14:21:48;3.45;;;1.50;;
80273;SDS011;69576;51.902;-8.462;2024-01-30T14:24:14;2.60;;;1.63;;
80273;SDS011;69576;51.902;-8.462;2024-01-30T14:26:40;2.10;;;1.30;;
80273;SDS011;69576;51.902;-8.462;2024-01-30T14:29:11;2.38;;;1.10;;
80273;SDS011;69576;51.902;-8.462;2024-01-30T14:31:37;1.25;;;0.80;;
80273;SDS011;69576;51.902;-8.462;2024-01-30T14:34:05;4.35;;;1.40;;
80273;SDS011;69576;51.902;-8.462;2024-01-30T14:36:38;7.72;;;1.42;;
80273;SDS011;69576;51.902;-8.462;2024-01-30T14:39:06;3.33;;;0.77;;
80273;SDS011;69576;51.902;-8.462;2024-01-30T14:41:32;2.05;;;0.85;;
80273;SDS011;69576;51.902;-8.462;2024-01-30T14:44:00;4.70;;;1.40;;
80273;SDS011;69576;51.902;-8.462;2024-01-30T14:46:26;3.15;;;1.25;;